sensor_id;sensor_type;location;lat;lon;timestamp;P1;durP1;ratioP1;P2;durP2;ratioP2
64339;SDS011;63709;53.258;-8.814;2023-05-29T00:00:59;12.07;;;3.35;;
64339;SDS011;63709;53.258;-8.814;2023-05-29T00:03:25;14.05;;;3.40;;
64339;SDS011;63709;53.258;-8.814;2023-05-29T00:05:51;10.95;;;3.58;;
64339;SDS011;63709;53.258;-8.814;2023-05-29T00:08:16;11.52;;;3.78;;
64339;SDS011;63709;53.258;-8.814;2023-05-29T00:10:41;15.67;;;4.40;;
64339;SDS011;63709;53.258;-8.814;2023-05-29T00:13:07;13.40;;;3.50;;
64339;SDS011;63709;53.258;-8.814;2023-05-29T00:15:33;14.02;;;3.10;;
64339;SDS011;63709;53.258;-8.814;2023-05-29T00:18:00;18.23;;;3.42;;
64339;SDS011;63709;53.258;-8.814;2023-05-29T00:20:26;14.45;;;4.00;;
64339;SDS011;63709;53.258;-8.814;2023-05-29T00:22:51;13.60;;;3.63;;
64339;SDS011;63709;53.258;-8.814;2023-05-29T00:25:17;16.58;;;3.78;;
64339;SDS011;63709;53.258;-8.814;2023-05-29T00:27:44;12.25;;;3.40;;
64339;SDS011;63709;53.258;-8.814;2023-05-29T00:30:10;12.60;;;3.22;;
64339;SDS011;63709;53.258;-8.814;2023-05-29T00:35:03;12.65;;;3.15;;
64339;SDS011;63709;53.258;-8.814;2023-05-29T00:37:30;14.55;;;3.25;;
64339;SDS011;63709;53.258;-8.814;2023-05-29T00:39:57;13.25;;;2.95;;
64339;SDS011;63709;53.258;-8.814;2023-05-29T00:42:22;12.27;;;3.10;;
64339;SDS011;63709;53.258;-8.814;2023-05-29T00:44:47;14.18;;;3.17;;
64339;SDS011;63709;53.258;-8.814;2023-05-29T00:47:13;11.52;;;3.00;;
64339;SDS011;63709;53.258;-8.814;2023-05-29T00:49:39;12.27;;;3.00;;
64339;SDS011;63709;53.258;-8.814;2023-05-29T00:52:04;17.42;;;3.28;;
64339;SDS011;63709;53.258;-8.814;2023-05-29T00:54:32;15.45;;;3.85;;
64339;SDS011;63709;53.258;-8.814;2023-05-29T00:56:59;10.02;;;2.75;;
64339;SDS011;63709;53.258;-8.814;2023-05-29T00:59:29;15.32;;;3.70;;
64339;SDS011;63709;53.258;-8.814;2023-05-29T01:01:58;14.25;;;4.03;;
64339;SDS011;63709;53.258;-8.814;2023-05-29T01:04:28;15.20;;;3.55;;
64339;SDS011;63709;53.258;-8.814;2023-05-29T01:06:54;13.45;;;3.67;;
64339;SDS011;63709;53.258;-8.814;2023-05-29T01:09:21;25.15;;;3.92;;
64339;SDS011;63709;53.258;-8.814;2023-05-29T01:12:14;16.58;;;3.22;;
64339;SDS011;63709;53.258;-8.814;2023-05-29T01:20:38;12.18;;;3.70;;
64339;SDS011;63709;53.258;-8.814;2023-05-29T01:23:23;12.10;;;3.35;;
64339;SDS011;63709;53.258;-8.814;2023-05-29T01:28:47;12.88;;;3.58;;
64339;SDS011;63709;53.258;-8.814;2023-05-29T01:31:16;12.60;;;3.50;;
64339;SDS011;63709;53.258;-8.814;2023-05-29T01:33:51;15.30;;;4.03;;
64339;SDS011;63709;53.258;-8.814;2023-05-29T01:36:18;13.02;;;3.80;;
64339;SDS011;63709;53.258;-8.814;2023-05-29T01:38:44;14.70;;;3.92;;
64339;SDS011;63709;53.258;-8.814;2023-05-29T01:41:10;12.32;;;3.90;;
64339;SDS011;63709;53.258;-8.814;2023-05-29T01:43:38;13.30;;;3.80;;
64339;SDS011;63709;53.258;-8.814;2023-05-29T01:46:04;18.50;;;3.45;;
64339;SDS011;63709;53.258;-8.814;2023-05-29T01:48:30;16.88;;;3.90;;
64339;SDS011;63709;53.258;-8.814;2023-05-29T01:50:58;13.90;;;3.40;;
64339;SDS011;63709;53.258;-8.814;2023-05-29T01:53:25;16.27;;;3.70;;
64339;SDS011;63709;53.258;-8.814;2023-05-29T01:55:51;19.90;;;3.75;;
64339;SDS011;63709;53.258;-8.814;2023-05-29T02:00:43;16.30;;;3.45;;
64339;SDS011;63709;53.258;-8.814;2023-05-29T02:03:09;11.85;;;3.58;;
64339;SDS011;63709;53.258;-8.814;2023-05-29T02:05:34;11.30;;;2.93;;
64339;SDS011;63709;53.258;-8.814;2023-05-29T02:08:00;16.43;;;3.63;;
64339;SDS011;63709;53.258;-8.814;2023-05-29T02:10:26;13.93;;;4.65;;
64339;SDS011;63709;53.258;-8.814;2023-05-29T02:12:52;12.40;;;3.53;;
64339;SDS011;63709;53.258;-8.814;2023-05-29T02:15:17;11.00;;;3.63;;
64339;SDS011;63709;53.258;-8.814;2023-05-29T02:17:43;10.40;;;3.30;;
64339;SDS011;63709;53.258;-8.814;2023-05-29T02:22:42;16.88;;;5.80;;
64339;SDS011;63709;53.258;-8.814;2023-05-29T02:25:07;14.63;;;4.70;;
64339;SDS011;63709;53.258;-8.814;2023-05-29T02:27:33;15.63;;;4.68;;
64339;SDS011;63709;53.258;-8.814;2023-05-29T02:30:00;17.50;;;4.10;;
64339;SDS011;63709;53.258;-8.814;2023-05-29T02:32:26;12.15;;;3.72;;
64339;SDS011;63709;53.258;-8.814;2023-05-29T02:34:53;12.57;;;3.55;;
64339;SDS011;63709;53.258;-8.814;2023-05-29T02:37:19;17.40;;;4.10;;
64339;SDS011;63709;53.258;-8.814;2023-05-29T02:39:44;13.48;;;3.63;;
64339;SDS011;63709;53.258;-8.814;2023-05-29T02:42:11;16.03;;;4.30;;
64339;SDS011;63709;53.258;-8.814;2023-05-29T02:44:43;14.63;;;3.78;;
64339;SDS011;63709;53.258;-8.814;2023-05-29T02:47:08;15.52;;;4.15;;
64339;SDS011;63709;53.258;-8.814;2023-05-29T02:49:34;14.07;;;3.38;;
64339;SDS011;63709;53.258;-8.814;2023-05-29T02:52:00;17.20;;;3.97;;
64339;SDS011;63709;53.258;-8.814;2023-05-29T02:54:25;16.52;;;3.97;;
64339;SDS011;63709;53.258;-8.814;2023-05-29T02:56:54;14.80;;;3.95;;
64339;SDS011;63709;53.258;-8.814;2023-05-29T02:59:22;15.63;;;3.83;;
64339;SDS011;63709;53.258;-8.814;2023-05-29T03:01:47;13.65;;;3.28;;
64339;SDS011;63709;53.258;-8.814;2023-05-29T03:06:40;10.57;;;3.50;;
64339;SDS011;63709;53.258;-8.814;2023-05-29T03:09:06;15.57;;;4.40;;
64339;SDS011;63709;53.258;-8.814;2023-05-29T03:11:32;15.20;;;4.07;;
64339;SDS011;63709;53.258;-8.814;2023-05-29T03:13:59;12.00;;;3.60;;
64339;SDS011;63709;53.258;-8.814;2023-05-29T03:16:26;13.00;;;3.88;;
64339;SDS011;63709;53.258;-8.814;2023-05-29T03:18:54;16.55;;;4.43;;
64339;SDS011;63709;53.258;-8.814;2023-05-29T03:21:22;13.95;;;3.20;;
64339;SDS011;63709;53.258;-8.814;2023-05-29T03:23:48;16.67;;;3.83;;
64339;SDS011;63709;53.258;-8.814;2023-05-29T03:26:14;16.60;;;3.65;;
64339;SDS011;63709;53.258;-8.814;2023-05-29T03:28:40;14.05;;;3.45;;
64339;SDS011;63709;53.258;-8.814;2023-05-29T03:31:06;12.27;;;3.55;;
64339;SDS011;63709;53.258;-8.814;2023-05-29T03:33:34;11.95;;;3.95;;
64339;SDS011;63709;53.258;-8.814;2023-05-29T03:36:05;13.55;;;3.45;;
64339;SDS011;63709;53.258;-8.814;2023-05-29T03:38:32;11.65;;;3.60;;
64339;SDS011;63709;53.258;-8.814;2023-05-29T03:40:59;12.35;;;3.70;;
64339;SDS011;63709;53.258;-8.814;2023-05-29T03:43:25;16.60;;;4.20;;
64339;SDS011;63709;53.258;-8.814;2023-05-29T03:45:51;16.02;;;3.67;;
64339;SDS011;63709;53.258;-8.814;2023-05-29T03:48:25;13.95;;;3.53;;
64339;SDS011;63709;53.258;-8.814;2023-05-29T03:50:57;10.40;;;3.70;;
64339;SDS011;63709;53.258;-8.814;2023-05-29T03:53:29;11.02;;;3.60;;
64339;SDS011;63709;53.258;-8.814;2023-05-29T03:55:56;15.15;;;4.40;;
64339;SDS011;63709;53.258;-8.814;2023-05-29T03:58:21;13.82;;;3.58;;
64339;SDS011;63709;53.258;-8.814;2023-05-29T04:00:55;11.57;;;4.18;;
64339;SDS011;63709;53.258;-8.814;2023-05-29T04:03:22;15.00;;;3.65;;
64339;SDS011;63709;53.258;-8.814;2023-05-29T04:05:48;11.75;;;2.92;;
64339;SDS011;63709;53.258;-8.814;2023-05-29T04:08:14;18.65;;;4.13;;
64339;SDS011;63709;53.258;-8.814;2023-05-29T04:13:05;13.63;;;3.63;;
64339;SDS011;63709;53.258;-8.814;2023-05-29T04:15:34;16.23;;;3.67;;
64339;SDS011;63709;53.258;-8.814;2023-05-29T04:18:00;12.48;;;3.78;;
64339;SDS011;63709;53.258;-8.814;2023-05-29T04:20:25;11.38;;;3.45;;
64339;SDS011;63709;53.258;-8.814;2023-05-29T04:22:51;8.95;;;3.10;;
64339;SDS011;63709;53.258;-8.814;2023-05-29T04:27:44;11.13;;;3.60;;
64339;SDS011;63709;53.258;-8.814;2023-05-29T04:30:14;12.13;;;3.53;;
64339;SDS011;63709;53.258;-8.814;2023-05-29T04:32:41;17.33;;;3.90;;
64339;SDS011;63709;53.258;-8.814;2023-05-29T04:37:34;21.77;;;3.83;;
64339;SDS011;63709;53.258;-8.814;2023-05-29T04:40:04;12.23;;;3.47;;
64339;SDS011;63709;53.258;-8.814;2023-05-29T04:42:37;19.63;;;3.90;;
64339;SDS011;63709;53.258;-8.814;2023-05-29T04:45:05;20.48;;;3.88;;
64339;SDS011;63709;53.258;-8.814;2023-05-29T04:47:38;15.38;;;3.72;;
64339;SDS011;63709;53.258;-8.814;2023-05-29T04:50:09;17.30;;;3.90;;
64339;SDS011;63709;53.258;-8.814;2023-05-29T04:52:36;11.48;;;4.05;;
64339;SDS011;63709;53.258;-8.814;2023-05-29T04:55:05;12.27;;;3.13;;
64339;SDS011;63709;53.258;-8.814;2023-05-29T04:57:31;16.70;;;3.70;;
64339;SDS011;63709;53.258;-8.814;2023-05-29T04:59:56;26.15;;;3.90;;
64339;SDS011;63709;53.258;-8.814;2023-05-29T05:02:22;12.05;;;3.28;;
64339;SDS011;63709;53.258;-8.814;2023-05-29T05:04:49;14.68;;;4.13;;
64339;SDS011;63709;53.258;-8.814;2023-05-29T05:07:15;11.57;;;3.40;;
64339;SDS011;63709;53.258;-8.814;2023-05-29T05:09:42;13.68;;;3.72;;
64339;SDS011;63709;53.258;-8.814;2023-05-29T05:12:09;16.13;;;3.75;;
64339;SDS011;63709;53.258;-8.814;2023-05-29T05:14:35;12.60;;;3.20;;
64339;SDS011;63709;53.258;-8.814;2023-05-29T05:17:00;18.42;;;3.92;;
64339;SDS011;63709;53.258;-8.814;2023-05-29T05:19:27;21.50;;;4.40;;
64339;SDS011;63709;53.258;-8.814;2023-05-29T05:21:52;46.50;;;4.93;;
64339;SDS011;63709;53.258;-8.814;2023-05-29T05:24:18;14.05;;;3.90;;
64339;SDS011;63709;53.258;-8.814;2023-05-29T05:26:45;18.45;;;3.75;;
64339;SDS011;63709;53.258;-8.814;2023-05-29T05:29:11;21.23;;;3.92;;
64339;SDS011;63709;53.258;-8.814;2023-05-29T05:31:37;13.52;;;3.35;;
64339;SDS011;63709;53.258;-8.814;2023-05-29T05:34:02;15.55;;;3.17;;
64339;SDS011;63709;53.258;-8.814;2023-05-29T05:36:27;22.30;;;3.35;;
64339;SDS011;63709;53.258;-8.814;2023-05-29T05:38:53;50.83;;;4.78;;
64339;SDS011;63709;53.258;-8.814;2023-05-29T05:41:19;16.50;;;3.85;;
64339;SDS011;63709;53.258;-8.814;2023-05-29T05:43:46;18.35;;;3.67;;
64339;SDS011;63709;53.258;-8.814;2023-05-29T05:46:12;16.33;;;3.85;;
64339;SDS011;63709;53.258;-8.814;2023-05-29T05:48:39;17.10;;;4.00;;
64339;SDS011;63709;53.258;-8.814;2023-05-29T05:51:07;11.35;;;3.75;;
64339;SDS011;63709;53.258;-8.814;2023-05-29T05:53:33;12.40;;;3.58;;
64339;SDS011;63709;53.258;-8.814;2023-05-29T05:55:58;15.70;;;3.70;;
64339;SDS011;63709;53.258;-8.814;2023-05-29T05:58:24;10.75;;;3.13;;
64339;SDS011;63709;53.258;-8.814;2023-05-29T06:00:51;9.18;;;3.30;;
64339;SDS011;63709;53.258;-8.814;2023-05-29T06:03:18;12.15;;;3.30;;
64339;SDS011;63709;53.258;-8.814;2023-05-29T06:05:44;15.30;;;4.00;;
64339;SDS011;63709;53.258;-8.814;2023-05-29T06:08:10;12.02;;;3.28;;
64339;SDS011;63709;53.258;-8.814;2023-05-29T06:10:36;16.65;;;3.80;;
64339;SDS011;63709;53.258;-8.814;2023-05-29T06:13:02;16.90;;;3.40;;
64339;SDS011;63709;53.258;-8.814;2023-05-29T06:15:27;16.13;;;4.10;;
64339;SDS011;63709;53.258;-8.814;2023-05-29T06:17:54;17.50;;;3.35;;
64339;SDS011;63709;53.258;-8.814;2023-05-29T06:20:21;20.45;;;4.30;;
64339;SDS011;63709;53.258;-8.814;2023-05-29T06:22:47;12.60;;;3.28;;
64339;SDS011;63709;53.258;-8.814;2023-05-29T06:25:16;15.80;;;4.20;;
64339;SDS011;63709;53.258;-8.814;2023-05-29T06:27:44;13.93;;;3.70;;
64339;SDS011;63709;53.258;-8.814;2023-05-29T06:30:12;10.57;;;3.80;;
64339;SDS011;63709;53.258;-8.814;2023-05-29T06:32:38;13.88;;;3.40;;
64339;SDS011;63709;53.258;-8.814;2023-05-29T06:35:10;14.05;;;3.30;;
64339;SDS011;63709;53.258;-8.814;2023-05-29T06:37:36;15.13;;;3.83;;
64339;SDS011;63709;53.258;-8.814;2023-05-29T06:42:32;10.57;;;3.42;;
64339;SDS011;63709;53.258;-8.814;2023-05-29T06:44:59;13.93;;;3.47;;
64339;SDS011;63709;53.258;-8.814;2023-05-29T06:47:24;13.38;;;3.20;;
64339;SDS011;63709;53.258;-8.814;2023-05-29T06:49:50;14.35;;;4.28;;
64339;SDS011;63709;53.258;-8.814;2023-05-29T06:52:16;16.83;;;3.83;;
64339;SDS011;63709;53.258;-8.814;2023-05-29T06:54:41;11.60;;;3.25;;
64339;SDS011;63709;53.258;-8.814;2023-05-29T06:57:07;20.27;;;3.75;;
64339;SDS011;63709;53.258;-8.814;2023-05-29T06:59:32;10.30;;;3.50;;
64339;SDS011;63709;53.258;-8.814;2023-05-29T07:01:58;17.98;;;3.38;;
64339;SDS011;63709;53.258;-8.814;2023-05-29T07:04:24;13.27;;;3.33;;
64339;SDS011;63709;53.258;-8.814;2023-05-29T07:06:51;11.38;;;4.03;;
64339;SDS011;63709;53.258;-8.814;2023-05-29T07:09:18;17.83;;;3.88;;
64339;SDS011;63709;53.258;-8.814;2023-05-29T07:11:44;12.75;;;3.45;;
64339;SDS011;63709;53.258;-8.814;2023-05-29T07:14:10;12.63;;;3.78;;
64339;SDS011;63709;53.258;-8.814;2023-05-29T07:16:37;14.25;;;3.50;;
64339;SDS011;63709;53.258;-8.814;2023-05-29T07:19:02;12.65;;;3.22;;
64339;SDS011;63709;53.258;-8.814;2023-05-29T07:21:29;14.15;;;3.45;;
64339;SDS011;63709;53.258;-8.814;2023-05-29T07:23:57;14.10;;;3.92;;
64339;SDS011;63709;53.258;-8.814;2023-05-29T07:26:23;14.55;;;3.28;;
64339;SDS011;63709;53.258;-8.814;2023-05-29T07:28:50;14.32;;;3.85;;
64339;SDS011;63709;53.258;-8.814;2023-05-29T07:31:15;17.08;;;3.60;;
64339;SDS011;63709;53.258;-8.814;2023-05-29T07:33:42;19.60;;;4.38;;
64339;SDS011;63709;53.258;-8.814;2023-05-29T07:36:07;17.00;;;3.97;;
64339;SDS011;63709;53.258;-8.814;2023-05-29T07:38:33;17.35;;;4.00;;
64339;SDS011;63709;53.258;-8.814;2023-05-29T07:40:59;11.27;;;3.30;;
64339;SDS011;63709;53.258;-8.814;2023-05-29T07:43:24;15.07;;;3.45;;
64339;SDS011;63709;53.258;-8.814;2023-05-29T07:45:49;15.33;;;4.03;;
64339;SDS011;63709;53.258;-8.814;2023-05-29T07:48:15;19.52;;;4.18;;
64339;SDS011;63709;53.258;-8.814;2023-05-29T07:50:40;12.88;;;3.83;;
64339;SDS011;63709;53.258;-8.814;2023-05-29T07:53:06;14.45;;;3.38;;
64339;SDS011;63709;53.258;-8.814;2023-05-29T07:55:33;11.57;;;3.40;;
64339;SDS011;63709;53.258;-8.814;2023-05-29T07:57:59;12.40;;;3.20;;
64339;SDS011;63709;53.258;-8.814;2023-05-29T08:00:28;17.88;;;4.07;;
64339;SDS011;63709;53.258;-8.814;2023-05-29T08:02:54;10.98;;;3.45;;
64339;SDS011;63709;53.258;-8.814;2023-05-29T08:05:20;18.45;;;4.20;;
64339;SDS011;63709;53.258;-8.814;2023-05-29T08:07:46;19.70;;;4.07;;
64339;SDS011;63709;53.258;-8.814;2023-05-29T08:10:13;17.00;;;4.90;;
64339;SDS011;63709;53.258;-8.814;2023-05-29T08:12:40;17.15;;;4.45;;
64339;SDS011;63709;53.258;-8.814;2023-05-29T08:15:06;14.32;;;3.95;;
64339;SDS011;63709;53.258;-8.814;2023-05-29T08:17:32;22.02;;;4.28;;
64339;SDS011;63709;53.258;-8.814;2023-05-29T08:22:32;15.68;;;3.80;;
64339;SDS011;63709;53.258;-8.814;2023-05-29T08:24:59;16.40;;;5.22;;
64339;SDS011;63709;53.258;-8.814;2023-05-29T08:27:25;17.20;;;4.20;;
64339;SDS011;63709;53.258;-8.814;2023-05-29T08:29:51;16.60;;;4.90;;
64339;SDS011;63709;53.258;-8.814;2023-05-29T08:32:18;15.52;;;4.70;;
64339;SDS011;63709;53.258;-8.814;2023-05-29T08:34:43;14.10;;;4.97;;
64339;SDS011;63709;53.258;-8.814;2023-05-29T08:37:10;20.50;;;4.38;;
64339;SDS011;63709;53.258;-8.814;2023-05-29T08:39:36;14.95;;;4.88;;
64339;SDS011;63709;53.258;-8.814;2023-05-29T08:42:10;14.32;;;4.10;;
64339;SDS011;63709;53.258;-8.814;2023-05-29T08:44:41;14.95;;;4.28;;
64339;SDS011;63709;53.258;-8.814;2023-05-29T08:47:12;23.98;;;4.60;;
64339;SDS011;63709;53.258;-8.814;2023-05-29T08:49:44;19.15;;;4.43;;
64339;SDS011;63709;53.258;-8.814;2023-05-29T08:52:16;16.58;;;4.60;;
64339;SDS011;63709;53.258;-8.814;2023-05-29T08:54:43;18.70;;;5.45;;
64339;SDS011;63709;53.258;-8.814;2023-05-29T08:57:10;14.18;;;4.47;;
64339;SDS011;63709;53.258;-8.814;2023-05-29T08:59:36;16.58;;;4.25;;
64339;SDS011;63709;53.258;-8.814;2023-05-29T09:02:05;20.73;;;4.28;;
64339;SDS011;63709;53.258;-8.814;2023-05-29T09:04:31;16.13;;;4.90;;
64339;SDS011;63709;53.258;-8.814;2023-05-29T09:06:57;20.33;;;6.00;;
64339;SDS011;63709;53.258;-8.814;2023-05-29T09:09:29;21.50;;;4.68;;
64339;SDS011;63709;53.258;-8.814;2023-05-29T09:11:57;13.18;;;5.00;;
64339;SDS011;63709;53.258;-8.814;2023-05-29T09:14:34;15.15;;;4.35;;
64339;SDS011;63709;53.258;-8.814;2023-05-29T09:17:02;23.33;;;5.80;;
64339;SDS011;63709;53.258;-8.814;2023-05-29T09:19:29;17.27;;;5.15;;
64339;SDS011;63709;53.258;-8.814;2023-05-29T09:24:33;15.73;;;4.72;;
64339;SDS011;63709;53.258;-8.814;2023-05-29T09:27:01;17.33;;;4.38;;
64339;SDS011;63709;53.258;-8.814;2023-05-29T09:29:32;19.65;;;4.75;;
64339;SDS011;63709;53.258;-8.814;2023-05-29T09:31:59;18.83;;;6.43;;
64339;SDS011;63709;53.258;-8.814;2023-05-29T09:34:27;17.08;;;5.10;;
64339;SDS011;63709;53.258;-8.814;2023-05-29T09:37:02;19.52;;;5.03;;
64339;SDS011;63709;53.258;-8.814;2023-05-29T09:39:33;14.32;;;4.82;;
64339;SDS011;63709;53.258;-8.814;2023-05-29T09:42:16;16.52;;;5.30;;
64339;SDS011;63709;53.258;-8.814;2023-05-29T09:44:43;20.17;;;5.60;;
64339;SDS011;63709;53.258;-8.814;2023-05-29T09:47:19;14.48;;;5.15;;
64339;SDS011;63709;53.258;-8.814;2023-05-29T09:52:20;23.48;;;5.97;;
64339;SDS011;63709;53.258;-8.814;2023-05-29T09:54:47;12.48;;;4.80;;
64339;SDS011;63709;53.258;-8.814;2023-05-29T09:57:20;23.58;;;4.80;;
64339;SDS011;63709;53.258;-8.814;2023-05-29T09:59:48;17.77;;;4.97;;
64339;SDS011;63709;53.258;-8.814;2023-05-29T10:02:16;19.13;;;5.35;;
64339;SDS011;63709;53.258;-8.814;2023-05-29T10:04:43;14.20;;;4.85;;
64339;SDS011;63709;53.258;-8.814;2023-05-29T10:07:26;16.90;;;4.65;;
64339;SDS011;63709;53.258;-8.814;2023-05-29T10:09:56;17.02;;;4.47;;
64339;SDS011;63709;53.258;-8.814;2023-05-29T10:12:38;17.25;;;4.82;;
64339;SDS011;63709;53.258;-8.814;2023-05-29T10:15:07;15.82;;;5.25;;
64339;SDS011;63709;53.258;-8.814;2023-05-29T10:17:39;18.52;;;6.45;;
64339;SDS011;63709;53.258;-8.814;2023-05-29T10:20:20;13.40;;;5.10;;
64339;SDS011;63709;53.258;-8.814;2023-05-29T10:22:49;14.50;;;5.13;;
64339;SDS011;63709;53.258;-8.814;2023-05-29T10:25:17;14.25;;;5.50;;
64339;SDS011;63709;53.258;-8.814;2023-05-29T10:27:47;14.60;;;5.20;;
64339;SDS011;63709;53.258;-8.814;2023-05-29T10:36:14;14.35;;;5.00;;
64339;SDS011;63709;53.258;-8.814;2023-05-29T10:38:46;14.75;;;5.07;;
64339;SDS011;63709;53.258;-8.814;2023-05-29T10:43:58;20.15;;;5.10;;
64339;SDS011;63709;53.258;-8.814;2023-05-29T10:49:19;12.75;;;5.45;;
64339;SDS011;63709;53.258;-8.814;2023-05-29T10:51:47;16.40;;;5.20;;
64339;SDS011;63709;53.258;-8.814;2023-05-29T10:54:14;12.35;;;5.07;;
64339;SDS011;63709;53.258;-8.814;2023-05-29T10:56:42;17.25;;;4.72;;
64339;SDS011;63709;53.258;-8.814;2023-05-29T10:59:10;13.85;;;5.05;;
64339;SDS011;63709;53.258;-8.814;2023-05-29T11:01:40;19.70;;;4.82;;
64339;SDS011;63709;53.258;-8.814;2023-05-29T11:06:46;14.35;;;5.00;;
64339;SDS011;63709;53.258;-8.814;2023-05-29T11:12:11;17.08;;;5.07;;
64339;SDS011;63709;53.258;-8.814;2023-05-29T11:14:53;14.43;;;4.93;;
64339;SDS011;63709;53.258;-8.814;2023-05-29T11:19:56;15.93;;;5.25;;
64339;SDS011;63709;53.258;-8.814;2023-05-29T11:22:27;15.13;;;6.65;;
64339;SDS011;63709;53.258;-8.814;2023-05-29T11:25:09;18.42;;;5.50;;
64339;SDS011;63709;53.258;-8.814;2023-05-29T11:27:36;11.48;;;5.65;;
64339;SDS011;63709;53.258;-8.814;2023-05-29T11:30:03;14.00;;;5.13;;
64339;SDS011;63709;53.258;-8.814;2023-05-29T11:32:31;14.88;;;4.80;;
64339;SDS011;63709;53.258;-8.814;2023-05-29T11:35:04;13.60;;;4.82;;
64339;SDS011;63709;53.258;-8.814;2023-05-29T11:37:36;14.73;;;5.07;;
64339;SDS011;63709;53.258;-8.814;2023-05-29T11:40:04;9.35;;;4.15;;
64339;SDS011;63709;53.258;-8.814;2023-05-29T11:42:35;10.60;;;4.30;;
64339;SDS011;63709;53.258;-8.814;2023-05-29T11:45:15;14.88;;;4.70;;
64339;SDS011;63709;53.258;-8.814;2023-05-29T11:47:53;13.60;;;4.43;;
64339;SDS011;63709;53.258;-8.814;2023-05-29T11:50:32;13.93;;;5.07;;
64339;SDS011;63709;53.258;-8.814;2023-05-29T11:53:00;13.75;;;5.70;;
64339;SDS011;63709;53.258;-8.814;2023-05-29T11:55:26;13.73;;;4.95;;
64339;SDS011;63709;53.258;-8.814;2023-05-29T11:57:56;15.38;;;6.00;;
64339;SDS011;63709;53.258;-8.814;2023-05-29T12:00:30;11.65;;;4.50;;
64339;SDS011;63709;53.258;-8.814;2023-05-29T12:03:04;11.20;;;4.55;;
64339;SDS011;63709;53.258;-8.814;2023-05-29T12:05:51;14.82;;;4.57;;
64339;SDS011;63709;53.258;-8.814;2023-05-29T12:08:24;12.05;;;4.55;;
64339;SDS011;63709;53.258;-8.814;2023-05-29T12:10:51;14.10;;;5.00;;
64339;SDS011;63709;53.258;-8.814;2023-05-29T12:13:21;17.42;;;5.03;;
64339;SDS011;63709;53.258;-8.814;2023-05-29T12:15:56;13.60;;;4.75;;
64339;SDS011;63709;53.258;-8.814;2023-05-29T12:18:28;13.10;;;4.50;;
64339;SDS011;63709;53.258;-8.814;2023-05-29T12:21:02;12.38;;;4.63;;
64339;SDS011;63709;53.258;-8.814;2023-05-29T12:23:29;10.63;;;4.03;;
64339;SDS011;63709;53.258;-8.814;2023-05-29T12:25:56;8.70;;;4.10;;
64339;SDS011;63709;53.258;-8.814;2023-05-29T12:28:25;10.63;;;4.25;;
64339;SDS011;63709;53.258;-8.814;2023-05-29T12:30:57;8.82;;;4.80;;
64339;SDS011;63709;53.258;-8.814;2023-05-29T12:33:33;8.68;;;3.85;;
64339;SDS011;63709;53.258;-8.814;2023-05-29T12:41:33;11.23;;;3.70;;
64339;SDS011;63709;53.258;-8.814;2023-05-29T12:44:00;7.57;;;3.90;;
64339;SDS011;63709;53.258;-8.814;2023-05-29T12:46:27;14.68;;;4.00;;
64339;SDS011;63709;53.258;-8.814;2023-05-29T12:49:15;11.45;;;4.35;;
64339;SDS011;63709;53.258;-8.814;2023-05-29T12:51:45;8.35;;;4.00;;
64339;SDS011;63709;53.258;-8.814;2023-05-29T12:54:15;9.80;;;4.18;;
64339;SDS011;63709;53.258;-8.814;2023-05-29T12:56:41;15.63;;;4.25;;
64339;SDS011;63709;53.258;-8.814;2023-05-29T12:59:08;9.07;;;4.05;;
64339;SDS011;63709;53.258;-8.814;2023-05-29T13:01:35;9.07;;;3.55;;
64339;SDS011;63709;53.258;-8.814;2023-05-29T13:04:06;11.43;;;4.20;;
64339;SDS011;63709;53.258;-8.814;2023-05-29T13:06:39;10.43;;;4.88;;
64339;SDS011;63709;53.258;-8.814;2023-05-29T13:09:05;12.13;;;4.13;;
64339;SDS011;63709;53.258;-8.814;2023-05-29T13:11:33;8.65;;;3.45;;
64339;SDS011;63709;53.258;-8.814;2023-05-29T13:13:58;9.00;;;3.40;;
64339;SDS011;63709;53.258;-8.814;2023-05-29T13:16:23;8.07;;;3.42;;
64339;SDS011;63709;53.258;-8.814;2023-05-29T13:18:49;8.68;;;4.28;;
64339;SDS011;63709;53.258;-8.814;2023-05-29T13:21:26;10.65;;;3.70;;
64339;SDS011;63709;53.258;-8.814;2023-05-29T13:23:51;8.00;;;3.83;;
64339;SDS011;63709;53.258;-8.814;2023-05-29T13:26:17;8.23;;;4.18;;
64339;SDS011;63709;53.258;-8.814;2023-05-29T13:28:42;9.07;;;3.80;;
64339;SDS011;63709;53.258;-8.814;2023-05-29T13:31:08;10.77;;;3.65;;
64339;SDS011;63709;53.258;-8.814;2023-05-29T13:33:42;10.70;;;4.13;;
64339;SDS011;63709;53.258;-8.814;2023-05-29T13:36:08;11.73;;;4.50;;
64339;SDS011;63709;53.258;-8.814;2023-05-29T13:38:33;9.55;;;3.72;;
64339;SDS011;63709;53.258;-8.814;2023-05-29T13:40:59;6.97;;;3.50;;
64339;SDS011;63709;53.258;-8.814;2023-05-29T13:43:25;6.95;;;3.47;;
64339;SDS011;63709;53.258;-8.814;2023-05-29T13:45:51;12.35;;;3.85;;
64339;SDS011;63709;53.258;-8.814;2023-05-29T13:48:16;10.63;;;3.80;;
64339;SDS011;63709;53.258;-8.814;2023-05-29T13:50:42;11.50;;;3.60;;
64339;SDS011;63709;53.258;-8.814;2023-05-29T13:53:08;11.15;;;3.90;;
64339;SDS011;63709;53.258;-8.814;2023-05-29T13:55:34;10.05;;;3.72;;
64339;SDS011;63709;53.258;-8.814;2023-05-29T13:58:00;9.68;;;4.03;;
64339;SDS011;63709;53.258;-8.814;2023-05-29T14:00:27;7.85;;;3.83;;
64339;SDS011;63709;53.258;-8.814;2023-05-29T14:02:52;10.75;;;3.67;;
64339;SDS011;63709;53.258;-8.814;2023-05-29T14:05:19;9.23;;;3.55;;
64339;SDS011;63709;53.258;-8.814;2023-05-29T14:07:46;9.77;;;3.83;;
64339;SDS011;63709;53.258;-8.814;2023-05-29T14:10:12;10.68;;;3.83;;
64339;SDS011;63709;53.258;-8.814;2023-05-29T14:15:06;13.77;;;4.63;;
64339;SDS011;63709;53.258;-8.814;2023-05-29T14:17:32;13.90;;;3.95;;
64339;SDS011;63709;53.258;-8.814;2023-05-29T14:19:58;9.48;;;3.58;;
64339;SDS011;63709;53.258;-8.814;2023-05-29T14:22:25;11.00;;;4.30;;
64339;SDS011;63709;53.258;-8.814;2023-05-29T14:24:52;10.60;;;4.35;;
64339;SDS011;63709;53.258;-8.814;2023-05-29T14:27:18;10.80;;;4.85;;
64339;SDS011;63709;53.258;-8.814;2023-05-29T14:29:43;11.40;;;4.15;;
64339;SDS011;63709;53.258;-8.814;2023-05-29T14:32:17;10.18;;;4.32;;
64339;SDS011;63709;53.258;-8.814;2023-05-29T14:34:42;10.15;;;3.75;;
64339;SDS011;63709;53.258;-8.814;2023-05-29T14:37:08;13.82;;;4.35;;
64339;SDS011;63709;53.258;-8.814;2023-05-29T14:39:35;9.65;;;3.60;;
64339;SDS011;63709;53.258;-8.814;2023-05-29T14:42:00;13.15;;;4.10;;
64339;SDS011;63709;53.258;-8.814;2023-05-29T14:44:26;12.85;;;4.25;;
64339;SDS011;63709;53.258;-8.814;2023-05-29T14:46:52;8.50;;;3.42;;
64339;SDS011;63709;53.258;-8.814;2023-05-29T14:49:18;8.93;;;3.50;;
64339;SDS011;63709;53.258;-8.814;2023-05-29T14:51:44;13.05;;;3.47;;
64339;SDS011;63709;53.258;-8.814;2023-05-29T14:54:10;11.05;;;3.70;;
64339;SDS011;63709;53.258;-8.814;2023-05-29T14:56:38;7.60;;;3.58;;
64339;SDS011;63709;53.258;-8.814;2023-05-29T14:59:04;13.27;;;3.67;;
64339;SDS011;63709;53.258;-8.814;2023-05-29T15:01:29;38.05;;;7.18;;
64339;SDS011;63709;53.258;-8.814;2023-05-29T15:03:55;10.77;;;3.60;;
64339;SDS011;63709;53.258;-8.814;2023-05-29T15:06:21;12.82;;;4.13;;
64339;SDS011;63709;53.258;-8.814;2023-05-29T15:08:47;10.98;;;4.10;;
64339;SDS011;63709;53.258;-8.814;2023-05-29T15:11:13;14.35;;;4.78;;
64339;SDS011;63709;53.258;-8.814;2023-05-29T15:13:40;10.88;;;4.00;;
64339;SDS011;63709;53.258;-8.814;2023-05-29T15:16:06;13.43;;;3.60;;
64339;SDS011;63709;53.258;-8.814;2023-05-29T15:18:34;10.90;;;3.80;;
64339;SDS011;63709;53.258;-8.814;2023-05-29T15:21:00;12.52;;;3.50;;
64339;SDS011;63709;53.258;-8.814;2023-05-29T15:23:26;12.45;;;3.85;;
64339;SDS011;63709;53.258;-8.814;2023-05-29T15:25:52;9.70;;;3.97;;
64339;SDS011;63709;53.258;-8.814;2023-05-29T15:28:18;12.07;;;3.75;;
64339;SDS011;63709;53.258;-8.814;2023-05-29T15:30:46;13.85;;;3.78;;